Diamond, Oregon
Current Conditions -  °F | °C
As of 4:11 AM on Friday 19 Dec 2014 (Local Time) from KBNO Reporting Station
Light Snow Light Snow  
Wind Chill: -2°   Ceiling: 1800
Heat Index:   Visibility: 9mi
Dew Point: -1°   Wind: 5mph
Humidity: 92%   Direction: 50°NE
Pressure: 29.99"   Gusts: NA
Location:  43.01°N, 118.66°W
Report Text: KBNO 191211Z AUTO 05004KT 9SM -SN FEW001 BKN018 OVC042 01/M01 A2999 RMK AO2 P0000 T00061006
Loading
Personal Weather Stations






























Interactive Weather Map New forecast layout! Learn more

10-Day Weather Forecast

Advertisements
Track Severe Weather on mobile